Time;durP1;ratioP1;P1;durP2;ratioP2;P2;SDS_P1;SDS_P2;PMS_P1;PMS_P2;Temp;Humidity;BMP_temperature;BMP_pressure;BME280_temperature;BME280_humidity;BME280_pressure;Samples;Min_cycle;Max_cycle;Signal;HPM_P1;HPM_P2
2023/10/04 00:01:39;;;;;;;0.00;0.00;;;10.70;99.90;;;;;;5053371;28;20049;-77
2023/10/04 00:04:05;;;;;;;0.00;0.00;;;10.70;99.90;;;;;;5056098;28;20045;-77
2023/10/04 00:06:31;;;;;;;1.08;0.52;;;10.80;99.90;;;;;;5043921;28;20033;-77
2023/10/04 00:09:03;;;;;;;0.43;0.40;;;10.90;99.90;;;;;;5047609;28;20144;-77
2023/10/04 00:11:31;;;;;;;0.43;0.10;;;10.90;99.90;;;;;;5055255;28;20128;-77
2023/10/04 00:13:57;;;;;;;0.00;0.00;;;10.80;99.90;;;;;;5055145;28;20049;-78
2023/10/04 00:16:22;;;;;;;0.00;0.00;;;10.80;99.90;;;;;;5055202;28;20044;-77
2023/10/04 00:18:49;;;;;;;0.20;0.20;;;10.90;99.90;;;;;;5055098;28;20037;-77
2023/10/04 00:21:15;;;;;;;0.15;0.15;;;10.80;99.90;;;;;;5055490;28;20052;-77
2023/10/04 00:23:41;;;;;;;0.00;0.00;;;10.90;99.90;;;;;;5055413;28;20040;-77
2023/10/04 00:26:08;;;;;;;0.00;0.00;;;10.90;99.90;;;;;;5056113;28;20378;-77
2023/10/04 00:28:34;;;;;;;0.28;0.25;;;11.00;99.90;;;;;;5056254;28;20056;-76
2023/10/04 00:31:01;;;;;;;0.30;0.30;;;10.90;99.90;;;;;;5056106;28;20041;-77
2023/10/04 00:33:26;;;;;;;0.00;0.00;;;10.90;99.90;;;;;;5056375;28;20482;-77
2023/10/04 00:35:52;;;;;;;0.00;0.00;;;10.90;99.90;;;;;;5053983;28;20133;-77
2023/10/04 00:38:20;;;;;;;0.00;0.00;;;11.00;99.90;;;;;;5048636;28;20041;-77
2023/10/04 00:40:47;;;;;;;0.17;0.13;;;11.00;99.90;;;;;;5053521;28;20048;-77
2023/10/04 00:43:15;;;;;;;0.10;0.10;;;11.00;99.90;;;;;;5055568;28;20079;-76
2023/10/04 00:45:49;;;;;;;0.25;0.25;;;11.10;99.90;;;;;;5055178;28;20090;-77
2023/10/04 00:48:23;;;;;;;0.05;0.05;;;11.20;99.90;;;;;;5054641;28;20045;-76
2023/10/04 00:50:48;;;;;;;8.85;0.95;;;11.00;99.90;;;;;;5056145;28;20436;-77
2023/10/04 00:53:16;;;;;;;0.10;0.10;;;11.00;99.90;;;;;;5052511;28;20041;-77
2023/10/04 00:55:44;;;;;;;0.00;0.00;;;11.00;99.90;;;;;;5049565;28;20057;-77
2023/10/04 00:58:11;;;;;;;2.45;0.88;;;11.00;99.90;;;;;;5050146;28;20402;-77
2023/10/04 01:00:43;;;;;;;0.00;0.00;;;11.00;99.90;;;;;;5054538;28;20513;-76
2023/10/04 01:03:09;;;;;;;0.00;0.00;;;11.00;99.90;;;;;;5052084;28;20043;-77
2023/10/04 01:05:39;;;;;;;1.42;0.65;;;11.00;99.90;;;;;;5054716;28;20041;-79
2023/10/04 01:08:06;;;;;;;0.00;0.00;;;11.00;99.90;;;;;;5055730;28;20175;-77
2023/10/04 01:10:35;;;;;;;0.00;0.00;;;11.10;99.90;;;;;;5055035;28;20051;-77
2023/10/04 01:13:05;;;;;;;0.00;0.00;;;11.10;99.90;;;;;;5055959;28;20041;-77
2023/10/04 01:15:36;;;;;;;0.63;0.55;;;11.20;99.90;;;;;;5056169;28;20048;-77
2023/10/04 01:18:16;;;;;;;0.75;0.45;;;11.10;99.90;;;;;;5053248;28;20543;-77
2023/10/04 01:20:43;;;;;;;4.03;2.20;;;11.00;99.90;;;;;;5054507;28;20453;-76
2023/10/04 01:23:12;;;;;;;9.85;0.80;;;11.00;99.90;;;;;;5054362;28;20048;-76
2023/10/04 01:25:42;;;;;;;0.10;0.10;;;11.00;99.90;;;;;;5054692;28;20059;-76
2023/10/04 01:28:13;;;;;;;7.38;0.45;;;11.00;99.90;;;;;;5053251;28;20041;-76
2023/10/04 01:30:48;;;;;;;0.40;0.13;;;10.90;99.90;;;;;;5054523;28;20068;-77
2023/10/04 01:33:21;;;;;;;2.65;0.85;;;10.90;99.90;;;;;;5045639;28;20056;-78
2023/10/04 01:35:54;;;;;;;0.30;0.08;;;10.90;99.90;;;;;;5054013;28;20371;-77
2023/10/04 01:38:32;;;;;;;1.35;0.30;;;11.00;99.90;;;;;;5047839;28;20040;-77
2023/10/04 01:40:58;;;;;;;1.65;0.68;;;11.00;99.90;;;;;;5055135;28;20040;-77
2023/10/04 01:43:24;;;;;;;2.30;1.15;;;10.90;99.90;;;;;;5055017;28;20037;-77
2023/10/04 01:45:58;;;;;;;0.00;0.00;;;11.00;99.90;;;;;;5048412;28;20049;-76
2023/10/04 01:48:26;;;;;;;0.00;0.00;;;11.00;99.90;;;;;;5044368;28;20083;-77
2023/10/04 01:50:53;;;;;;;1.60;0.47;;;10.90;99.90;;;;;;5054212;28;20033;-77
2023/10/04 01:53:25;;;;;;;0.03;0.03;;;11.10;99.90;;;;;;5051639;28;20061;-77
2023/10/04 01:55:52;;;;;;;0.52;0.43;;;10.90;99.90;;;;;;5050500;28;20063;-77
2023/10/04 01:58:24;;;;;;;0.20;0.17;;;10.90;99.90;;;;;;5054074;28;20037;-76
2023/10/04 02:00:50;;;;;;;0.00;0.00;;;11.00;99.90;;;;;;5054530;28;20124;-77
2023/10/04 02:03:16;;;;;;;0.00;0.00;;;11.00;99.90;;;;;;5052264;28;20040;-77
2023/10/04 02:05:42;;;;;;;0.13;0.10;;;11.00;99.90;;;;;;5052356;28;20055;-76
2023/10/04 02:08:12;;;;;;;0.00;0.00;;;11.10;99.90;;;;;;5053311;28;20170;-76
2023/10/04 02:10:38;;;;;;;0.22;0.22;;;11.60;99.90;;;;;;5052996;28;20139;-77
2023/10/04 02:13:08;;;;;;;0.05;0.05;;;11.10;99.90;;;;;;5053102;28;20048;-77
2023/10/04 02:15:38;;;;;;;0.57;0.45;;;11.00;99.90;;;;;;5052402;28;20503;-77
2023/10/04 02:18:04;;;;;;;0.08;0.08;;;11.00;99.90;;;;;;5053389;28;20051;-77
2023/10/04 02:20:34;;;;;;;0.00;0.00;;;11.10;99.90;;;;;;5053445;28;20037;-77
2023/10/04 02:23:02;;;;;;;0.10;0.10;;;11.10;99.90;;;;;;5051783;28;20049;-77
2023/10/04 02:25:28;;;;;;;0.00;0.00;;;11.10;99.90;;;;;;5053770;28;20064;-77
2023/10/04 02:28:00;;;;;;;0.10;0.08;;;11.00;99.90;;;;;;5049933;28;20041;-77
2023/10/04 02:30:26;;;;;;;0.20;0.20;;;11.20;99.90;;;;;;5053035;28;20041;-78
2023/10/04 02:32:53;;;;;;;0.32;0.20;;;11.00;99.90;;;;;;5053998;28;20116;-77
2023/10/04 02:35:29;;;;;;;0.52;0.32;;;11.10;99.90;;;;;;5053764;28;20041;-76
2023/10/04 02:38:08;;;;;;;0.00;0.00;;;11.10;99.90;;;;;;5055030;28;20053;-79
2023/10/04 02:40:34;;;;;;;0.00;0.00;;;11.10;99.90;;;;;;5051506;28;20128;-77
2023/10/04 02:43:00;;;;;;;0.00;0.00;;;11.20;99.90;;;;;;5053760;28;20123;-77
2023/10/04 02:45:27;;;;;;;0.00;0.00;;;11.10;99.90;;;;;;5053726;28;20044;-77
2023/10/04 02:47:53;;;;;;;0.00;0.00;;;11.30;99.90;;;;;;5052071;28;20064;-77
2023/10/04 02:50:23;;;;;;;0.00;0.00;;;11.10;99.90;;;;;;5052736;28;20033;-77
2023/10/04 02:52:51;;;;;;;0.20;0.17;;;11.10;99.90;;;;;;5052946;28;20052;-77
2023/10/04 02:55:18;;;;;;;0.00;0.00;;;11.10;99.90;;;;;;5049956;28;20509;-78
2023/10/04 02:57:53;;;;;;;0.00;0.00;;;11.30;99.90;;;;;;5048328;28;20076;-76
2023/10/04 03:00:20;;;;;;;0.32;0.32;;;11.20;99.90;;;;;;5051037;28;20402;-77
2023/10/04 03:02:54;;;;;;;0.00;0.00;;;11.20;99.90;;;;;;5054242;28;20075;-77
2023/10/04 03:05:20;;;;;;;0.45;0.20;;;11.10;99.90;;;;;;5053535;28;20037;-77
2023/10/04 03:07:47;;;;;;;21.63;0.40;;;11.10;99.90;;;;;;5054249;28;20047;-77
2023/10/04 03:10:23;;;;;;;0.30;0.30;;;11.10;99.90;;;;;;5054478;28;20052;-78
2023/10/04 03:12:52;;;;;;;0.00;0.00;;;11.10;99.90;;;;;;5057705;28;20049;-78
2023/10/04 03:15:22;;;;;;;0.10;0.10;;;11.10;99.90;;;;;;5056567;28;20072;-77
2023/10/04 03:17:50;;;;;;;0.10;0.10;;;11.10;99.90;;;;;;5049113;28;20037;-77
2023/10/04 03:20:20;;;;;;;2.20;1.67;;;11.00;99.90;;;;;;5057681;28;20044;-77
2023/10/04 03:22:50;;;;;;;0.00;0.00;;;11.00;99.90;;;;;;5056358;28;20033;-77
2023/10/04 03:25:17;;;;;;;2.40;0.73;;;11.00;99.90;;;;;;5053375;28;20041;-78
2023/10/04 03:27:43;;;;;;;0.38;0.38;;;11.00;99.90;;;;;;5056028;28;20044;-77
2023/10/04 03:30:14;;;;;;;1.60;1.05;;;10.90;99.90;;;;;;5056509;28;20048;-77
2023/10/04 03:32:52;;;;;;;0.10;0.05;;;10.90;99.90;;;;;;5058035;28;20040;-78
2023/10/04 03:35:21;;;;;;;0.00;0.00;;;10.90;99.90;;;;;;5057013;28;20497;-77
2023/10/04 03:37:54;;;;;;;0.00;0.00;;;10.90;99.90;;;;;;5057419;28;20041;-77
2023/10/04 03:40:22;;;;;;;4.35;2.40;;;10.90;99.90;;;;;;5057250;28;20126;-78
2023/10/04 03:42:48;;;;;;;0.10;0.10;;;10.80;99.90;;;;;;5056574;28;20052;-77
2023/10/04 03:45:17;;;;;;;0.65;0.38;;;10.80;99.90;;;;;;5048013;28;20528;-77
2023/10/04 03:47:44;;;;;;;0.93;0.75;;;10.90;99.90;;;;;;5039746;28;20045;-78
2023/10/04 03:50:12;;;;;;;0.10;0.10;;;10.90;99.90;;;;;;5040474;28;20045;-77
2023/10/04 03:52:39;;;;;;;0.05;0.05;;;11.00;99.90;;;;;;5053127;28;20051;-77
2023/10/04 03:55:10;;;;;;;1.75;0.32;;;10.90;99.90;;;;;;5046534;28;20128;-78
2023/10/04 03:57:40;;;;;;;5.05;0.63;;;10.90;99.90;;;;;;5054668;28;20048;-78
2023/10/04 04:00:07;;;;;;;11.57;1.08;;;10.90;99.90;;;;;;5056563;28;20379;-78
2023/10/04 04:02:33;;;;;;;2.63;1.92;;;10.90;99.90;;;;;;5056938;28;20088;-77
2023/10/04 04:04:58;;;;;;;0.00;0.00;;;11.00;99.90;;;;;;5056459;28;20053;-78
2023/10/04 04:07:26;;;;;;;0.08;0.08;;;11.00;99.90;;;;;;5055164;28;20128;-78
2023/10/04 04:09:52;;;;;;;1.02;0.35;;;10.90;99.90;;;;;;5056640;28;20060;-77
2023/10/04 04:12:18;;;;;;;0.00;0.00;;;11.20;99.90;;;;;;5057047;28;20088;-77
2023/10/04 04:14:43;;;;;;;1.17;0.52;;;10.90;99.90;;;;;;5057438;28;20433;-77
2023/10/04 04:17:09;;;;;;;9.40;3.65;;;10.90;99.90;;;;;;5054937;28;20044;-78
2023/10/04 04:19:35;;;;;;;0.00;0.00;;;10.90;99.90;;;;;;5056581;28;20363;-77
2023/10/04 04:22:01;;;;;;;0.00;0.00;;;10.90;99.90;;;;;;5055779;28;20055;-78
2023/10/04 04:24:27;;;;;;;0.10;0.10;;;11.10;99.90;;;;;;5055984;28;20033;-78
2023/10/04 04:26:58;;;;;;;0.00;0.00;;;11.00;99.90;;;;;;5054063;28;20368;-77
2023/10/04 04:29:24;;;;;;;0.00;0.00;;;11.00;99.90;;;;;;5054188;28;20076;-76
2023/10/04 04:31:52;;;;;;;0.30;0.30;;;11.00;99.90;;;;;;5056122;28;20056;-78
2023/10/04 04:34:18;;;;;;;0.35;0.20;;;11.00;99.90;;;;;;5056846;28;20045;-77
2023/10/04 04:36:46;;;;;;;0.00;0.00;;;11.00;99.90;;;;;;5056642;28;20043;-77
2023/10/04 04:39:18;;;;;;;0.52;0.22;;;11.00;99.90;;;;;;5055785;28;20067;-78
2023/10/04 04:41:46;;;;;;;1.27;0.60;;;11.10;99.90;;;;;;5055037;28;20053;-78
2023/10/04 04:44:19;;;;;;;0.45;0.32;;;11.20;99.90;;;;;;5056170;28;20113;-78
2023/10/04 04:46:47;;;;;;;0.00;0.00;;;11.20;99.90;;;;;;5056873;28;20452;-77
2023/10/04 04:49:13;;;;;;;0.20;0.20;;;11.20;99.90;;;;;;5054815;28;20092;-77
2023/10/04 04:51:39;;;;;;;0.03;0.03;;;11.20;99.90;;;;;;5054539;28;20410;-78
2023/10/04 04:54:06;;;;;;;0.10;0.10;;;11.20;99.90;;;;;;5047950;28;20053;-78
2023/10/04 04:56:32;;;;;;;0.22;0.22;;;11.20;99.90;;;;;;5055956;28;20061;-80
2023/10/04 04:58:57;;;;;;;0.20;0.20;;;11.20;99.90;;;;;;5054538;28;20163;-77
2023/10/04 05:01:23;;;;;;;0.55;0.30;;;11.20;99.90;;;;;;5054962;28;20041;-79
2023/10/04 05:03:51;;;;;;;2.00;1.20;;;11.20;99.90;;;;;;5056745;28;20048;-80
2023/10/04 05:06:25;;;;;;;0.10;0.10;;;11.20;99.90;;;;;;5052076;28;20033;-78
2023/10/04 05:08:54;;;;;;;0.00;0.00;;;11.20;99.90;;;;;;5053845;28;20048;-78
2023/10/04 05:11:20;;;;;;;0.25;0.25;;;11.20;99.90;;;;;;5054080;28;20044;-78
2023/10/04 05:13:46;;;;;;;0.75;0.52;;;11.20;99.90;;;;;;5053590;28;20072;-78
2023/10/04 05:16:12;;;;;;;1.08;0.03;;;11.10;99.90;;;;;;5054800;28;20033;-78
2023/10/04 05:18:38;;;;;;;0.00;0.00;;;11.20;99.90;;;;;;5054417;28;20066;-77
2023/10/04 05:21:04;;;;;;;0.55;0.47;;;11.20;99.90;;;;;;5055248;28;20036;-78
2023/10/04 05:23:30;;;;;;;0.00;0.00;;;11.20;99.90;;;;;;5055269;28;20052;-78
2023/10/04 05:25:58;;;;;;;0.85;0.65;;;11.10;99.90;;;;;;5054851;28;20049;-77
2023/10/04 05:28:24;;;;;;;0.20;0.20;;;11.20;99.90;;;;;;5055023;28;20037;-77
2023/10/04 05:30:51;;;;;;;0.63;0.47;;;11.20;99.90;;;;;;5053491;28;20045;-78
2023/10/04 05:33:18;;;;;;;0.70;0.52;;;11.20;99.90;;;;;;5053865;28;20033;-77
2023/10/04 05:35:45;;;;;;;0.00;0.00;;;11.20;99.90;;;;;;5054379;28;20509;-78
2023/10/04 05:38:12;;;;;;;5.35;1.45;;;11.10;99.90;;;;;;5053717;28;20128;-78
2023/10/04 05:40:39;;;;;;;0.00;0.00;;;11.10;99.90;;;;;;5053444;28;20052;-77
2023/10/04 05:43:08;;;;;;;2.63;0.77;;;11.10;99.90;;;;;;5054442;28;20402;-78
2023/10/04 05:45:36;;;;;;;1.35;0.80;;;11.10;99.90;;;;;;5054759;28;20127;-78
2023/10/04 05:48:04;;;;;;;0.10;0.10;;;11.10;99.90;;;;;;5054780;28;20135;-78
2023/10/04 05:50:32;;;;;;;1.25;0.32;;;11.20;99.90;;;;;;5046761;28;20041;-78
2023/10/04 05:53:01;;;;;;;1.27;0.47;;;11.30;99.90;;;;;;5053748;28;20071;-78
2023/10/04 05:55:27;;;;;;;0.00;0.00;;;11.40;99.90;;;;;;5047856;28;20532;-79
2023/10/04 05:57:52;;;;;;;3.10;0.55;;;11.50;99.90;;;;;;5053109;28;20072;-77
2023/10/04 06:02:53;;;;;;;0.10;0.10;;;11.60;99.90;;;;;;5050047;28;20052;-78
2023/10/04 06:05:23;;;;;;;0.00;0.00;;;11.60;99.90;;;;;;5044288;28;20079;-78
2023/10/04 06:07:54;;;;;;;0.08;0.08;;;11.60;99.90;;;;;;5053237;28;20092;-78
2023/10/04 06:10:20;;;;;;;0.00;0.00;;;12.80;99.90;;;;;;5051494;28;20040;-78
2023/10/04 06:12:46;;;;;;;0.00;0.00;;;11.50;99.90;;;;;;5051424;28;20041;-78
2023/10/04 06:15:16;;;;;;;0.20;0.20;;;11.60;99.90;;;;;;5052449;28;20041;-78
2023/10/04 06:17:48;;;;;;;0.30;0.28;;;11.50;99.90;;;;;;5045866;28;20049;-77
2023/10/04 06:20:25;;;;;;;0.65;0.35;;;11.50;99.90;;;;;;5051013;28;20119;-78
2023/10/04 06:22:59;;;;;;;0.10;0.10;;;11.60;99.90;;;;;;5052372;28;20049;-78
2023/10/04 06:25:26;;;;;;;0.00;0.00;;;11.90;99.90;;;;;;5036518;28;20053;-78
2023/10/04 06:27:53;;;;;;;1.20;0.30;;;11.70;99.90;;;;;;5033623;28;20073;-77
2023/10/04 06:30:21;;;;;;;0.20;0.20;;;11.70;99.90;;;;;;5030994;28;20052;-78
2023/10/04 06:32:51;;;;;;;0.03;0.03;;;11.80;99.90;;;;;;5034619;28;20076;-77
2023/10/04 06:35:17;;;;;;;0.55;0.25;;;11.80;99.90;;;;;;5052274;28;20037;-77
2023/10/04 06:37:43;;;;;;;0.10;0.10;;;11.80;99.90;;;;;;5052371;28;20041;-78
2023/10/04 06:40:15;;;;;;;0.03;0.03;;;11.70;99.90;;;;;;5032377;28;21000;-78
2023/10/04 06:42:43;;;;;;;0.10;0.10;;;11.70;99.90;;;;;;5030319;28;20060;-78
2023/10/04 06:45:09;;;;;;;0.75;0.50;;;11.70;99.90;;;;;;5028360;28;20151;-78
2023/10/04 06:47:35;;;;;;;0.35;0.28;;;11.80;99.90;;;;;;5030538;28;20048;-77
2023/10/04 06:50:02;;;;;;;2.80;0.30;;;11.90;99.90;;;;;;5030194;28;20048;-77
2023/10/04 06:52:28;;;;;;;0.00;0.00;;;11.90;99.90;;;;;;5029993;28;20045;-77
2023/10/04 06:54:54;;;;;;;0.10;0.10;;;11.80;99.90;;;;;;5029857;28;20063;-77
2023/10/04 06:57:20;;;;;;;0.10;0.10;;;11.80;99.90;;;;;;5030854;28;20456;-77
2023/10/04 06:59:46;;;;;;;0.30;0.30;;;11.90;99.90;;;;;;5030415;28;20586;-78
2023/10/04 07:02:12;;;;;;;4.95;0.63;;;11.90;99.90;;;;;;5030983;28;20551;-77
2023/10/04 07:04:37;;;;;;;2.75;0.38;;;11.90;99.90;;;;;;5031238;28;20575;-77
2023/10/04 07:07:03;;;;;;;0.47;0.35;;;12.10;99.90;;;;;;5031094;28;20041;-78
2023/10/04 07:09:28;;;;;;;0.03;0.03;;;12.10;99.90;;;;;;5031023;28;20045;-79
2023/10/04 07:11:54;;;;;;;0.93;0.55;;;12.10;99.90;;;;;;5031021;28;20052;-77
2023/10/04 07:14:20;;;;;;;0.00;0.00;;;12.10;99.90;;;;;;5030055;28;20049;-78
2023/10/04 07:16:45;;;;;;;0.17;0.17;;;12.40;99.90;;;;;;5034468;28;20045;-78
2023/10/04 07:19:12;;;;;;;2.85;0.45;;;12.40;99.90;;;;;;5031676;28;20041;-78
2023/10/04 07:21:37;;;;;;;0.08;0.08;;;12.30;99.90;;;;;;5030189;28;20045;-78
2023/10/04 07:24:03;;;;;;;0.20;0.20;;;12.50;99.90;;;;;;5029989;28;20064;-77
2023/10/04 07:26:34;;;;;;;1.38;0.60;;;12.40;99.90;;;;;;5028879;28;20044;-78
2023/10/04 07:29:00;;;;;;;0.40;0.40;;;12.50;99.90;;;;;;5030847;28;20044;-77
2023/10/04 07:31:25;;;;;;;0.35;0.20;;;12.50;99.90;;;;;;5029857;28;20410;-77
2023/10/04 07:33:51;;;;;;;0.05;0.05;;;12.60;99.90;;;;;;5030614;28;20487;-77
2023/10/04 07:36:17;;;;;;;0.57;0.57;;;12.70;99.90;;;;;;5030594;28;20044;-78
2023/10/04 07:38:42;;;;;;;0.20;0.20;;;12.80;99.90;;;;;;5045542;28;20040;-77
2023/10/04 07:41:08;;;;;;;0.40;0.30;;;12.90;99.90;;;;;;5039986;28;20033;-78
2023/10/04 07:43:35;;;;;;;1.05;0.65;;;13.00;99.90;;;;;;5033156;28;20402;-78
2023/10/04 07:46:01;;;;;;;0.73;0.50;;;13.20;99.90;;;;;;5046004;28;20052;-77
2023/10/04 07:48:27;;;;;;;0.00;0.00;;;13.30;99.90;;;;;;5039286;28;20698;-78
2023/10/04 07:50:53;;;;;;;0.25;0.25;;;13.30;99.90;;;;;;5029573;28;20088;-78
2023/10/04 07:53:21;;;;;;;1.25;1.00;;;13.40;99.90;;;;;;5029320;28;20132;-78
2023/10/04 07:55:49;;;;;;;1.02;0.75;;;13.60;99.90;;;;;;5034444;28;20162;-77
2023/10/04 07:58:15;;;;;;;0.95;0.55;;;13.50;99.90;;;;;;5051091;28;20084;-78
2023/10/04 08:00:41;;;;;;;0.70;0.47;;;13.60;99.90;;;;;;5049179;28;20080;-77
2023/10/04 08:03:10;;;;;;;0.05;0.05;;;13.60;99.90;;;;;;5049674;28;20049;-77
2023/10/04 08:05:36;;;;;;;0.20;0.20;;;13.70;99.90;;;;;;5051967;28;20068;-77
2023/10/04 08:08:03;;;;;;;0.30;0.30;;;13.70;99.90;;;;;;5048933;28;20509;-78
2023/10/04 08:10:35;;;;;;;0.40;0.22;;;13.80;99.90;;;;;;5031661;28;20071;-77
2023/10/04 08:13:02;;;;;;;0.20;0.20;;;13.80;99.90;;;;;;5031841;28;20063;-78
2023/10/04 08:15:30;;;;;;;0.88;0.60;;;13.90;99.90;;;;;;5044387;28;20040;-78
2023/10/04 08:17:58;;;;;;;3.88;2.10;;;14.00;99.90;;;;;;5043785;28;20122;-77
2023/10/04 08:20:26;;;;;;;4.38;1.25;;;14.10;99.90;;;;;;5030277;28;20400;-77
2023/10/04 08:22:51;;;;;;;0.35;0.32;;;14.20;99.90;;;;;;5029383;28;20056;-77
2023/10/04 08:25:23;;;;;;;0.30;0.10;;;14.20;99.90;;;;;;5030223;28;20044;-77
2023/10/04 08:27:49;;;;;;;2.53;0.65;;;14.20;99.90;;;;;;5030953;28;20084;-78
2023/10/04 08:30:16;;;;;;;2.08;1.20;;;14.30;46.10;;;;;;5032252;28;20141;-78
2023/10/04 08:32:47;;;;;;;1.38;1.27;;;14.50;1.00;;;;;;5048719;28;20090;-77
2023/10/04 08:35:27;;;;;;;8.93;1.40;;;14.50;99.90;;;;;;5050620;28;20044;-77
2023/10/04 08:37:57;;;;;;;1.48;1.17;;;14.50;99.90;;;;;;5041540;28;20044;-77
2023/10/04 08:40:25;;;;;;;1.73;0.77;;;14.60;1.00;;;;;;5049624;28;20041;-78
2023/10/04 08:42:51;;;;;;;1.17;0.98;;;14.80;1.00;;;;;;5050146;28;20053;-78
2023/10/04 08:45:17;;;;;;;0.38;0.38;;;14.70;99.90;;;;;;5050589;28;20041;-78
2023/10/04 08:47:50;;;;;;;0.10;0.10;;;14.80;99.90;;;;;;5051571;28;20033;-77
2023/10/04 08:50:20;;;;;;;0.10;0.10;;;15.00;1.00;;;;;;5049458;28;20045;-76
2023/10/04 08:52:47;;;;;;;0.17;0.17;;;15.00;99.90;;;;;;5050937;28;20091;-78
2023/10/04 08:55:20;;;;;;;6.20;1.20;;;15.10;28.70;;;;;;5051335;28;20604;-77
2023/10/04 08:57:46;;;;;;;0.35;0.35;;;15.30;1.00;;;;;;5051359;28;20044;-77
2023/10/04 09:00:18;;;;;;;4.75;1.42;;;15.20;1.00;;;;;;5052503;28;20119;-77
2023/10/04 09:02:47;;;;;;;0.28;0.28;;;15.20;99.90;;;;;;5049911;28;20053;-78
2023/10/04 09:05:17;;;;;;;0.55;0.55;;;15.30;86.20;;;;;;5051613;28;20049;-77
2023/10/04 09:07:43;;;;;;;0.17;0.17;;;15.30;99.90;;;;;;5048588;28;20052;-77
2023/10/04 09:10:17;;;;;;;0.38;0.30;;;15.30;1.00;;;;;;5030357;28;20049;-77
2023/10/04 09:12:43;;;;;;;0.45;0.40;;;15.40;99.90;;;;;;5030601;28;20052;-78
2023/10/04 09:15:13;;;;;;;0.30;0.30;;;15.50;99.90;;;;;;5043470;28;20106;-77
2023/10/04 09:17:55;;;;;;;8.32;1.60;;;15.60;99.90;;;;;;5050841;28;20048;-78
2023/10/04 09:20:24;;;;;;;1.05;0.75;;;15.70;1.00;;;;;;5049561;28;20059;-77
2023/10/04 09:22:50;;;;;;;1.75;0.80;;;15.80;99.90;;;;;;5050228;28;20147;-77
2023/10/04 09:25:16;;;;;;;2.97;2.13;;;15.90;96.10;;;;;;5050920;28;20052;-78
2023/10/04 09:27:55;;;;;;;2.47;1.02;;;16.00;99.90;;;;;;5049650;28;20041;-78
2023/10/04 09:30:23;;;;;;;1.33;1.15;;;16.00;1.00;;;;;;5047721;28;20446;-77
2023/10/04 09:32:51;;;;;;;0.35;0.35;;;16.20;53.60;;;;;;5041251;28;20409;-78
2023/10/04 09:35:20;;;;;;;1.98;1.48;;;16.60;1.00;;;;;;5047912;28;20560;-78
2023/10/04 09:37:49;;;;;;;0.43;0.30;;;17.40;99.90;;;;;;5050983;28;20033;-78
2023/10/04 09:40:17;;;;;;;2.17;1.27;;;18.10;99.90;;;;;;5050689;28;20040;-78
2023/10/04 09:42:53;;;;;;;1.25;0.90;;;18.40;99.90;;;;;;5050573;28;20048;-78
2023/10/04 09:45:31;;;;;;;0.32;0.32;;;18.50;99.90;;;;;;5031431;28;20045;-78
2023/10/04 09:48:02;;;;;;;8.60;0.80;;;18.60;99.90;;;;;;5029178;28;20052;-77
2023/10/04 09:50:28;;;;;;;0.30;0.30;;;18.70;99.90;;;;;;5030477;28;20084;-77
2023/10/04 09:52:54;;;;;;;0.88;0.52;;;18.60;99.90;;;;;;5029678;28;20053;-78
2023/10/04 09:55:22;;;;;;;0.47;0.47;;;18.30;99.90;;;;;;5032917;28;20044;-77
2023/10/04 09:57:48;;;;;;;2.72;0.93;;;17.80;91.50;;;;;;5046944;28;20124;-78
2023/10/04 10:00:18;;;;;;;0.82;0.57;;;17.50;99.90;;;;;;5050417;28;20041;-78
2023/10/04 10:02:48;;;;;;;1.25;0.77;;;17.30;99.90;;;;;;5049482;28;20417;-78
2023/10/04 10:05:32;;;;;;;0.32;0.32;;;17.50;99.90;;;;;;5046199;28;20049;-78
2023/10/04 10:08:06;;;;;;;0.10;0.10;;;17.60;99.90;;;;;;5028206;28;20055;-77
2023/10/04 10:10:37;;;;;;;6.32;1.00;;;17.90;99.90;;;;;;5028581;28;20049;-78
2023/10/04 10:13:05;;;;;;;0.73;0.68;;;18.10;99.90;;;;;;5037549;28;20052;-78
2023/10/04 10:15:31;;;;;;;0.57;0.52;;;18.30;99.90;;;;;;5049901;28;20045;-78
2023/10/04 10:17:59;;;;;;;0.70;0.45;;;18.50;90.60;;;;;;5050647;28;20033;-78
2023/10/04 10:20:25;;;;;;;3.78;0.57;;;18.50;76.50;;;;;;5049155;28;20175;-78
2023/10/04 10:22:59;;;;;;;1.40;0.95;;;18.40;99.90;;;;;;5050008;28;20115;-78
2023/10/04 10:25:29;;;;;;;0.15;0.15;;;18.30;78.00;;;;;;5049538;28;20053;-78
2023/10/04 10:27:58;;;;;;;1.15;0.85;;;18.10;22.20;;;;;;5049378;28;20538;-78
2023/10/04 10:30:31;;;;;;;1.15;1.02;;;18.00;1.00;;;;;;5047330;28;20044;-78
2023/10/04 10:32:58;;;;;;;0.88;0.65;;;17.90;1.00;;;;;;5050031;28;20452;-78
2023/10/04 10:35:48;;;;;;;0.30;0.30;;;17.60;1.00;;;;;;5049967;28;20038;-78
2023/10/04 10:38:43;;;;;;;0.38;0.22;;;17.50;1.00;;;;;;5025209;28;20056;-77
2023/10/04 10:41:32;;;;;;;0.40;0.40;;;17.50;1.00;;;;;;5029325;28;20052;-78
2023/10/04 10:44:33;;;;;;;3.30;1.75;;;17.70;1.00;;;;;;5022415;28;20445;-77
2023/10/04 10:47:12;;;;;;;2.95;1.02;;;17.80;1.00;;;;;;5021160;28;20057;-78
2023/10/04 10:49:42;;;;;;;0.28;0.28;;;17.80;1.00;;;;;;5026723;28;20119;-77
2023/10/04 10:52:25;;;;;;;0.22;0.22;;;17.90;1.00;;;;;;5026206;28;20049;-77
2023/10/04 10:54:58;;;;;;;6.90;0.65;;;17.80;1.00;;;;;;5027945;28;20056;-77
2023/10/04 10:57:28;;;;;;;1.23;0.85;;;17.90;1.00;;;;;;5027902;28;20120;-78
2023/10/04 10:59:55;;;;;;;0.20;0.20;;;18.00;1.00;;;;;;5026702;28;20120;-77
2023/10/04 11:02:22;;;;;;;0.57;0.57;;;18.00;1.00;;;;;;5038633;28;20037;-77
2023/10/04 11:04:49;;;;;;;3.30;0.80;;;17.90;1.00;;;;;;5048479;28;20052;-76
2023/10/04 11:07:17;;;;;;;2.13;1.52;;;18.10;1.00;;;;;;5049120;28;20051;-76
2023/10/04 11:09:54;;;;;;;3.80;0.63;;;17.90;1.00;;;;;;5047586;28;20052;-76
2023/10/04 11:12:21;;;;;;;3.17;0.82;;;18.00;1.00;;;;;;5048942;28;20136;-77
2023/10/04 11:14:47;;;;;;;1.17;0.90;;;18.00;1.00;;;;;;5039592;28;20087;-77
2023/10/04 11:17:16;;;;;;;0.32;0.32;;;18.00;1.00;;;;;;5031734;28;20055;-78
2023/10/04 11:19:43;;;;;;;0.38;0.30;;;17.90;1.00;;;;;;5043146;28;20041;-79
2023/10/04 11:22:11;;;;;;;1.65;0.98;;;17.90;1.00;;;;;;5050138;28;20371;-78
2023/10/04 11:24:39;;;;;;;0.20;0.20;;;17.90;1.00;;;;;;5042288;28;20053;-78
2023/10/04 11:27:05;;;;;;;3.20;0.95;;;17.90;1.00;;;;;;5048850;28;20048;-79
2023/10/04 11:29:33;;;;;;;0.22;0.22;;;17.90;1.00;;;;;;5050553;28;20107;-78
2023/10/04 11:31:59;;;;;;;2.10;0.80;;;18.00;1.00;;;;;;5052706;28;20510;-78
2023/10/04 11:34:27;;;;;;;0.20;0.20;;;17.70;1.00;;;;;;5054811;28;20041;-81
2023/10/04 11:37:00;;;;;;;0.45;0.40;;;17.70;1.00;;;;;;5054356;28;20203;-79
2023/10/04 11:39:33;;;;;;;1.70;1.23;;;17.70;1.00;;;;;;5053616;28;20049;-78
2023/10/04 11:42:03;;;;;;;0.00;0.00;;;17.80;1.00;;;;;;5053546;28;20520;-77
2023/10/04 11:44:42;;;;;;;3.25;1.00;;;17.90;1.00;;;;;;5053879;28;20045;-78
2023/10/04 11:47:10;;;;;;;0.35;0.32;;;17.80;1.00;;;;;;5050313;28;20502;-78
2023/10/04 11:49:38;;;;;;;0.38;0.28;;;17.90;1.00;;;;;;5053727;28;20025;-78
2023/10/04 11:52:07;;;;;;;0.65;0.35;;;17.90;1.00;;;;;;5045652;28;20049;-78
2023/10/04 11:54:46;;;;;;;7.07;1.80;;;17.70;1.00;;;;;;5053999;28;20133;-78
2023/10/04 11:57:23;;;;;;;3.92;2.05;;;17.70;1.00;;;;;;5046401;28;20068;-78
2023/10/04 11:59:49;;;;;;;2.22;0.63;;;17.80;1.00;;;;;;5053320;28;20135;-79
2023/10/04 12:02:14;;;;;;;0.35;0.35;;;17.90;1.00;;;;;;5053714;28;20128;-78
2023/10/04 12:04:40;;;;;;;3.03;1.05;;;18.10;1.00;;;;;;5054559;28;20048;-78
2023/10/04 12:07:09;;;;;;;0.15;0.15;;;18.40;1.00;;;;;;5053820;28;20490;-79
2023/10/04 12:09:35;;;;;;;13.95;2.90;;;18.40;1.00;;;;;;5053544;28;20045;-78
2023/10/04 12:12:07;;;;;;;2.05;0.15;;;18.40;1.00;;;;;;5052574;28;20049;-77
2023/10/04 12:14:34;;;;;;;0.30;0.30;;;18.50;1.00;;;;;;5052978;28;20041;-77
2023/10/04 12:17:04;;;;;;;7.85;0.95;;;18.50;1.00;;;;;;5055822;28;20044;-77
2023/10/04 12:19:31;;;;;;;1.38;0.82;;;18.40;1.00;;;;;;5046436;28;20080;-77
2023/10/04 12:21:59;;;;;;;2.55;1.23;;;18.30;1.00;;;;;;5054104;28;20459;-77
2023/10/04 12:24:26;;;;;;;1.40;0.70;;;18.40;1.00;;;;;;5054606;28;20060;-78
2023/10/04 12:26:55;;;;;;;0.38;0.32;;;18.50;1.00;;;;;;5053948;28;20430;-78
2023/10/04 12:29:22;;;;;;;1.42;0.15;;;18.60;1.00;;;;;;5054860;28;20040;-78
2023/10/04 12:31:47;;;;;;;0.45;0.45;;;18.60;1.00;;;;;;5054506;28;20128;-78
2023/10/04 12:34:14;;;;;;;0.20;0.20;;;18.50;1.00;;;;;;5055332;28;20472;-77
2023/10/04 12:36:39;;;;;;;0.73;0.55;;;18.40;1.00;;;;;;5055107;28;20067;-78
2023/10/04 12:39:06;;;;;;;3.58;0.70;;;18.50;1.00;;;;;;5054975;28;20033;-78
2023/10/04 12:41:32;;;;;;;1.42;1.05;;;18.50;1.00;;;;;;5054483;28;20087;-78
2023/10/04 12:43:58;;;;;;;0.47;0.47;;;18.50;1.00;;;;;;5054447;28;20037;-78
2023/10/04 12:46:24;;;;;;;1.75;1.00;;;18.70;1.00;;;;;;5055210;28;20045;-77
2023/10/04 12:48:50;;;;;;;2.40;0.90;;;18.80;1.00;;;;;;5054753;28;20094;-78
2023/10/04 12:51:15;;;;;;;0.30;0.25;;;19.00;1.00;;;;;;5055250;28;20429;-78
2023/10/04 12:53:42;;;;;;;0.95;0.65;;;19.10;1.00;;;;;;5054482;28;20045;-78
2023/10/04 12:56:11;;;;;;;0.68;0.63;;;19.10;1.00;;;;;;5055408;28;20037;-78
2023/10/04 12:58:36;;;;;;;0.98;0.63;;;19.10;1.00;;;;;;5054159;28;20044;-78